»·PEaware :: N53176 KSNA-KLGB

N53176 :: KSNA-KLGB

FLIGHT INFORMATION

Flight Status: Arrived
Operator: Privately registered:
United States
More flights under this callsign
Pilot: Bill F. (18685)
Aircraft: CESSNA 172 SKYHAWK
(C172)
More flights by this aircraft type
Origin: KSNA John Wayne-Orange Co
United States
Destination: KLGB Long Beach
United States
More flights between these airports :: More routes between these airports
Route: +
File this flight plan on PilotEdge
Remarks:
Altitude:
(Current/Filed)
0ft
Speed:
(Current/Filed)
0kts
Departed: 13-Feb-20 06:16 PM
Arrived: 13-Feb-20 06:50 PM
Distance/Time
Traveled:
29nm/0:33
Distance/Time
To Go:
Arrived

Flight Plot

Page will automatically refresh every two minutes.


Map Options




Map Legend


Flown Route
Filed Route
Departure Airport
Arrival Airport
Navaid (VOR, NDB)
Fix

Horizontal Profiles

Position Reports

Time Latitude Longitude Heading Altitude Ground
Speed
13-Feb-20 18:05 33.676721 -117.870558 115 60ft 0kts
13-Feb-20 18:06 33.676721 -117.870558 115 60ft 0kts
13-Feb-20 18:07 33.676721 -117.870558 115 60ft 0kts
13-Feb-20 18:08 33.676721 -117.870558 115 60ft 0kts
13-Feb-20 18:09 33.677440 -117.869204 29 60ft 11kts
13-Feb-20 18:10 33.677497 -117.868714 200 60ft 0kts
13-Feb-20 18:11 33.677497 -117.868714 200 60ft 0kts
13-Feb-20 18:12 33.679539 -117.867967 18 60ft 18kts
13-Feb-20 18:13 33.681197 -117.866485 101 60ft 0kts
13-Feb-20 18:14 33.681197 -117.866485 101 60ft 0kts
13-Feb-20 18:15 33.674777 -117.869369 207 158ft 79kts
13-Feb-20 18:16 33.663283 -117.888898 241 1206ft 73kts
13-Feb-20 18:17 33.654055 -117.912295 240 2063ft 79kts
13-Feb-20 18:18 33.644033 -117.938105 246 2833ft 83kts
13-Feb-20 18:19 33.640332 -117.965543 274 3547ft 92kts
13-Feb-20 18:20 33.652105 -117.996160 301 2995ft 107kts
13-Feb-20 18:21 33.667626 -118.025789 299 2994ft 102kts
13-Feb-20 18:22 33.682847 -118.054785 299 2993ft 101kts
13-Feb-20 18:23 33.699548 -118.082543 307 2992ft 102kts
13-Feb-20 18:24 33.701909 -118.108575 193 2982ft 93kts
13-Feb-20 18:25 33.698881 -118.088011 16 2987ft 102kts
13-Feb-20 18:26 33.706840 -118.109909 238 2986ft 94kts
13-Feb-20 18:27 33.688050 -118.119390 123 2978ft 97kts
13-Feb-20 18:28 33.699119 -118.090177 55 2989ft 102kts
13-Feb-20 18:29 33.714773 -118.101760 234 2985ft 93kts
13-Feb-20 18:30 33.699098 -118.092976 69 2985ft 100kts
13-Feb-20 18:31 33.716568 -118.100267 248 2986ft 94kts
13-Feb-20 18:32 33.702001 -118.091942 67 2985ft 100kts
13-Feb-20 18:33 33.724388 -118.092150 299 2987ft 100kts
13-Feb-20 18:34 33.714527 -118.116596 233 3008ft 93kts
13-Feb-20 18:35 33.720399 -118.145797 306 2678ft 105kts
13-Feb-20 18:36 33.738871 -118.172601 302 2030ft 96kts
13-Feb-20 18:37 33.761879 -118.182550 20 1587ft 103kts
13-Feb-20 18:38 33.787092 -118.165650 39 1118ft 98kts
13-Feb-20 18:39 33.803798 -118.141444 83 1034ft 97kts
13-Feb-20 18:40 33.813806 -118.142195 268 302ft 79kts
13-Feb-20 18:41 33.814362 -118.163935 271 474ft 65kts
13-Feb-20 18:42 33.804451 -118.170206 89 1096ft 98kts
13-Feb-20 18:43 33.803690 -118.135156 91 1033ft 96kts
13-Feb-20 18:44 33.813791 -118.142857 267 308ft 60kts
13-Feb-20 18:45 33.813734 -118.161865 272 417ft 63kts
13-Feb-20 18:46 33.803907 -118.172362 125 1215ft 89kts
13-Feb-20 18:47 33.803590 -118.141303 96 864ft 82kts
13-Feb-20 18:48 33.813776 -118.140484 268 355ft 55kts
13-Feb-20 18:49 33.813557 -118.151263 231 44ft 11kts
13-Feb-20 18:50 33.813194 -118.148165 35 44ft 8kts
13-Feb-20 18:51 33.813369 -118.148074 7 44ft 0kts
13-Feb-20 18:52 33.813369 -118.148074 7 44ft 0kts
13-Feb-20 18:53 33.813417 -118.148069 0 44ft 5kts
13-Feb-20 18:54 33.813576 -118.165218 260 709ft 62kts
13-Feb-20 18:55 33.812383 -118.186152 268 1619ft 63kts
13-Feb-20 18:56 33.817425 -118.206789 337 2449ft 73kts
13-Feb-20 18:57 33.836463 -118.219859 323 3269ft 73kts
13-Feb-20 18:58 33.847527 -118.242334 284 3967ft 82kts
13-Feb-20 18:59 33.852911 -118.270360 283 4508ft 101kts
13-Feb-20 19:00 33.858782 -118.305632 284 4470ft 112kts
13-Feb-20 19:01 33.871266 -118.337898 328 4472ft 110kts
13-Feb-20 19:02 33.895931 -118.356576 328 4485ft 110kts
13-Feb-20 19:04 33.921631 -118.376173 323 4500ft 113kts

Navigation Log

Ident Type
Flight plan parsing failed, navigation log unavailable